Time,TemperatureF,DewpointF,PressureIn,WindDirection,WindDirectionDegrees,WindSpeedMPH,WindSpeedGustMPH,Humidity,HourlyPrecipIn,Conditions,Clouds,dailyrainin,SoftwareType,DateUTC
2013-07-25 00:00:00,53.3,50.7,30.04,East,96,0.0,1.2,91,0.00,CLR,,0.00,WeatherDisplay:10.37,2013-07-25 04:00:00,
2013-07-25 00:01:00,53.3,50.7,30.04,East,96,0.0,1.2,91,0.00,CLR,,0.00,WeatherDisplay:10.37,2013-07-25 04:01:00,
2013-07-25 00:06:00,53.1,50.5,30.04,East,96,0.0,1.2,91,0.00,CLR,,0.00,WeatherDisplay:10.37,2013-07-25 04:06:00,
2013-07-25 00:11:00,53.2,50.9,30.04,East,96,0.0,1.2,92,0.00,CLR,,0.00,WeatherDisplay:10.37,2013-07-25 04:11:00,
2013-07-25 00:16:00,53.1,50.8,30.04,East,96,0.0,1.2,92,0.00,CLR,,0.00,WeatherDisplay:10.37,2013-07-25 04:16:00,
2013-07-25 00:21:00,53.3,51.0,30.05,East,96,0.0,1.2,92,0.00,CLR,,0.00,WeatherDisplay:10.37,2013-07-25 04:21:00,
2013-07-25 00:26:00,53.4,51.1,30.05,ESE,110,0.0,1.2,92,0.00,CLR,,0.00,WeatherDisplay:10.37,2013-07-25 04:26:00,
2013-07-25 00:31:00,53.4,50.8,30.05,ESE,110,0.0,1.2,91,0.00,CLR,,0.00,WeatherDisplay:10.37,2013-07-25 04:31:00,
2013-07-25 00:36:00,53.4,50.8,30.05,ESE,121,0.0,1.2,91,0.00,CLR,,0.00,WeatherDisplay:10.37,2013-07-25 04:36:00,
2013-07-25 00:41:00,53.4,50.8,30.05,SSE,153,0.0,1.2,91,0.00,CLR,,0.00,WeatherDisplay:10.37,2013-07-25 04:41:00,
2013-07-25 00:46:00,53.5,50.9,30.05,SE,134,0.0,1.2,91,0.00,CLR,,0.00,WeatherDisplay:10.37,2013-07-25 04:46:00,
2013-07-25 00:51:00,53.5,50.9,30.05,SE,134,0.1,1.2,91,0.00,CLR,,0.00,WeatherDisplay:10.37,2013-07-25 04:51:00,
2013-07-25 00:56:00,53.5,50.6,30.05,SE,134,0.0,1.2,90,0.00,CLR,,0.00,WeatherDisplay:10.37,2013-07-25 04:56:00,
2013-07-25 01:01:00,53.5,50.6,30.05,SE,134,0.0,1.2,90,0.00,CLR,,0.00,WeatherDisplay:10.37,2013-07-25 05:01:00,
2013-07-25 01:06:00,53.4,50.5,30.05,SE,134,0.0,1.2,90,0.00,CLR,,0.00,WeatherDisplay:10.37,2013-07-25 05:06:00,
2013-07-25 01:11:00,53.4,50.5,30.05,SE,134,0.0,1.2,90,0.00,CLR,,0.00,WeatherDisplay:10.37,2013-07-25 05:11:00,
2013-07-25 01:16:00,53.3,50.4,30.05,SE,134,0.0,1.2,90,0.00,CLR,,0.00,WeatherDisplay:10.37,2013-07-25 05:16:00,
2013-07-25 01:21:00,53.2,50.3,30.05,SE,134,0.0,1.2,90,0.00,CLR,,0.00,WeatherDisplay:10.37,2013-07-25 05:21:00,
2013-07-25 01:26:00,53.1,50.2,30.05,SE,134,0.0,1.2,90,0.00,CLR,,0.00,WeatherDisplay:10.37,2013-07-25 05:26:00,
2013-07-25 01:31:00,52.9,50.0,30.05,SE,134,0.0,1.2,90,0.00,CLR,,0.00,WeatherDisplay:10.37,2013-07-25 05:31:00,
2013-07-25 01:36:00,52.7,49.8,30.05,SE,134,0.0,1.2,90,0.00,CLR,,0.00,WeatherDisplay:10.37,2013-07-25 05:36:00,
2013-07-25 01:41:00,52.6,50.0,30.05,SE,134,0.0,1.2,91,0.00,CLR,,0.00,WeatherDisplay:10.37,2013-07-25 05:41:00,
2013-07-25 01:46:00,52.6,50.0,30.05,SE,134,0.0,1.2,91,0.00,CLR,,0.00,WeatherDisplay:10.37,2013-07-25 05:46:00,
2013-07-25 01:51:00,52.5,49.9,30.04,SE,134,0.0,1.2,91,0.00,CLR,,0.00,WeatherDisplay:10.37,2013-07-25 05:51:00,
2013-07-25 01:56:00,52.4,49.6,30.04,SE,134,0.0,1.2,90,0.00,CLR,,0.00,WeatherDisplay:10.37,2013-07-25 05:56:00,
2013-07-25 02:01:00,52.3,49.8,30.04,SE,134,0.0,1.2,91,0.00,,,0.00,WeatherDisplay:10.37,2013-07-25 06:01:00,
2013-07-25 02:06:00,52.3,49.8,30.04,SE,134,0.0,1.2,91,0.00,,,0.00,WeatherDisplay:10.37,2013-07-25 06:06:00,
2013-07-25 02:11:00,52.2,49.7,30.04,SE,134,0.0,1.2,91,0.00,,,0.00,WeatherDisplay:10.37,2013-07-25 06:11:00,
2013-07-25 02:16:00,52.1,49.6,30.04,SE,136,0.0,1.2,91,0.00,,,0.00,WeatherDisplay:10.37,2013-07-25 06:16:00,
2013-07-25 02:21:00,52.1,49.6,30.04,SE,136,0.0,1.2,91,0.00,,,0.00,WeatherDisplay:10.37,2013-07-25 06:21:00,
2013-07-25 02:26:00,51.9,49.4,30.04,SE,136,0.0,1.2,91,0.00,,,0.00,WeatherDisplay:10.37,2013-07-25 06:26:00,
2013-07-25 02:31:00,51.8,49.5,30.04,SE,136,0.0,1.2,92,0.00,,,0.00,WeatherDisplay:10.37,2013-07-25 06:31:00,
2013-07-25 02:36:00,51.8,49.5,30.04,SE,137,0.0,1.2,92,0.00,,,0.00,WeatherDisplay:10.37,2013-07-25 06:36:00,
2013-07-25 02:41:00,51.8,49.5,30.04,SE,136,0.0,1.2,92,0.00,,,0.00,WeatherDisplay:10.37,2013-07-25 06:41:00,
2013-07-25 02:46:00,51.8,49.5,30.04,SE,137,0.0,1.2,92,0.00,,,0.00,WeatherDisplay:10.37,2013-07-25 06:46:00,
2013-07-25 02:51:00,51.8,49.5,30.04,East,90,0.1,1.2,92,0.00,,,0.00,WeatherDisplay:10.37,2013-07-25 06:51:00,
2013-07-25 02:56:00,51.9,49.6,30.04,SE,132,0.0,2.3,92,0.00,,,0.00,WeatherDisplay:10.37,2013-07-25 06:56:00,
2013-07-25 03:01:00,51.8,49.5,30.04,SE,129,0.0,2.3,92,0.00,,,0.00,WeatherDisplay:10.37,2013-07-25 07:01:00,
2013-07-25 03:06:00,51.7,49.5,30.04,SE,131,0.0,2.3,92,0.00,,,0.00,WeatherDisplay:10.37,2013-07-25 07:06:00,
2013-07-25 03:11:00,51.6,49.4,30.04,SE,131,0.0,2.3,92,0.00,,,0.00,WeatherDisplay:10.37,2013-07-25 07:11:00,
2013-07-25 03:16:00,51.6,49.4,30.04,SE,131,0.0,2.3,92,0.00,,,0.00,WeatherDisplay:10.37,2013-07-25 07:16:00,
2013-07-25 03:21:00,51.4,49.4,30.04,SE,131,0.0,2.3,93,0.00,,,0.00,WeatherDisplay:10.37,2013-07-25 07:21:00,
2013-07-25 03:26:00,51.4,49.4,30.04,SE,131,0.0,2.3,93,0.00,,,0.00,WeatherDisplay:10.37,2013-07-25 07:26:00,
2013-07-25 03:31:00,51.3,49.3,30.04,SE,131,0.0,2.3,93,0.00,,,0.00,WeatherDisplay:10.37,2013-07-25 07:31:00,
2013-07-25 03:36:00,51.4,49.4,30.04,SE,131,0.0,2.3,93,0.00,,,0.00,WeatherDisplay:10.37,2013-07-25 07:36:00,
2013-07-25 03:41:00,51.4,49.4,30.04,SE,131,0.0,2.3,93,0.00,,,0.00,WeatherDisplay:10.37,2013-07-25 07:41:00,
2013-07-25 03:46:00,51.3,49.3,30.04,SE,131,0.0,2.3,93,0.00,,,0.00,WeatherDisplay:10.37,2013-07-25 07:46:00,
2013-07-25 03:51:00,51.4,49.4,30.04,SE,131,0.0,2.3,93,0.00,,,0.00,WeatherDisplay:10.37,2013-07-25 07:51:00,
2013-07-25 03:56:00,51.3,49.3,30.04,SE,131,0.0,2.3,93,0.00,,,0.00,WeatherDisplay:10.37,2013-07-25 07:56:00,
2013-07-25 04:01:00,51.1,49.1,30.04,SE,131,0.0,2.3,93,0.00,,,0.00,WeatherDisplay:10.37,2013-07-25 08:01:00,
2013-07-25 04:07:00,51.1,49.1,30.04,SE,131,0.0,2.3,93,0.00,,,0.00,WeatherDisplay:10.37,2013-07-25 08:07:00,
2013-07-25 04:12:00,51.0,49.0,30.04,SE,131,0.0,2.3,93,0.00,,,0.00,WeatherDisplay:10.37,2013-07-25 08:12:00,
2013-07-25 04:17:00,50.9,48.9,30.04,SE,131,0.0,2.3,93,0.00,,,0.00,WeatherDisplay:10.37,2013-07-25 08:17:00,
2013-07-25 04:22:00,50.8,48.8,30.04,SE,131,0.0,2.3,93,0.00,,,0.00,WeatherDisplay:10.37,2013-07-25 08:22:00,
2013-07-25 04:27:00,50.6,48.7,30.04,SE,131,0.0,2.3,93,0.00,,,0.00,WeatherDisplay:10.37,2013-07-25 08:27:00,
2013-07-25 04:32:00,50.6,48.9,30.04,SE,131,0.0,2.3,94,0.00,,,0.00,WeatherDisplay:10.37,2013-07-25 08:32:00,
2013-07-25 04:37:00,50.5,48.8,30.05,SE,131,0.0,2.3,94,0.00,,,0.00,WeatherDisplay:10.37,2013-07-25 08:37:00,
2013-07-25 04:42:00,50.5,48.8,30.05,SE,131,0.0,2.3,94,0.00,,,0.00,WeatherDisplay:10.37,2013-07-25 08:42:00,
2013-07-25 04:47:00,50.3,48.6,30.05,SE,131,0.0,2.3,94,0.00,,,0.00,WeatherDisplay:10.37,2013-07-25 08:47:00,
2013-07-25 04:52:00,50.2,48.5,30.05,SE,131,0.0,2.3,94,0.00,,,0.00,WeatherDisplay:10.37,2013-07-25 08:52:00,
2013-07-25 04:57:00,50.3,48.6,30.05,SE,131,0.0,2.3,94,0.00,,,0.00,WeatherDisplay:10.37,2013-07-25 08:57:00,
2013-07-25 05:02:00,50.2,48.5,30.05,SE,131,0.0,2.3,94,0.00,,,0.00,WeatherDisplay:10.37,2013-07-25 09:02:00,
2013-07-25 05:07:00,50.1,48.4,30.05,SE,131,0.0,2.3,94,0.00,,,0.00,WeatherDisplay:10.37,2013-07-25 09:07:00,
2013-07-25 05:12:00,50.1,48.7,30.05,SE,131,0.0,2.3,95,0.00,,,0.00,WeatherDisplay:10.37,2013-07-25 09:12:00,
2013-07-25 05:17:00,50.1,48.7,30.06,SE,131,0.0,2.3,95,0.00,,,0.00,WeatherDisplay:10.37,2013-07-25 09:17:00,
2013-07-25 05:22:00,50.0,48.6,30.06,SE,131,0.0,2.3,95,0.00,,,0.00,WeatherDisplay:10.37,2013-07-25 09:22:00,
2013-07-25 05:27:00,50.1,48.7,30.06,SE,131,0.0,2.3,95,0.00,,,0.00,WeatherDisplay:10.37,2013-07-25 09:27:00,
2013-07-25 05:32:00,50.2,48.8,30.06,SE,131,0.0,2.3,95,0.00,,,0.00,WeatherDisplay:10.37,2013-07-25 09:32:00,
2013-07-25 05:37:00,50.2,48.8,30.06,SE,128,0.0,2.3,95,0.00,,,0.00,WeatherDisplay:10.37,2013-07-25 09:37:00,
2013-07-25 05:42:00,50.1,48.7,30.07,SE,128,0.0,2.3,95,0.00,,,0.00,WeatherDisplay:10.37,2013-07-25 09:42:00,
2013-07-25 05:47:00,50.0,48.6,30.07,ESE,110,0.0,2.3,95,0.00,,,0.00,WeatherDisplay:10.37,2013-07-25 09:47:00,
2013-07-25 05:52:00,50.0,48.6,30.07,ESE,110,0.0,2.3,95,0.00,,,0.00,WeatherDisplay:10.37,2013-07-25 09:52:00,
2013-07-25 05:57:00,50.0,48.6,30.07,East,96,0.1,2.3,95,0.00,,,0.00,WeatherDisplay:10.37,2013-07-25 09:57:00,
2013-07-25 06:02:00,50.1,48.7,30.07,East,96,0.1,2.3,95,0.00,,,0.00,WeatherDisplay:10.37,2013-07-25 10:02:00,
2013-07-25 06:07:00,50.1,48.7,30.07,East,96,0.0,2.3,95,0.00,,,0.00,WeatherDisplay:10.37,2013-07-25 10:07:00,
2013-07-25 06:12:00,50.1,48.7,30.07,East,96,0.0,2.3,95,0.00,,,0.00,WeatherDisplay:10.37,2013-07-25 10:12:00,
2013-07-25 06:17:00,50.1,48.7,30.07,East,96,0.0,2.3,95,0.00,,,0.00,WeatherDisplay:10.37,2013-07-25 10:17:00,
2013-07-25 06:22:00,50.1,48.7,30.08,East,96,0.0,2.3,95,0.00,,,0.00,WeatherDisplay:10.37,2013-07-25 10:22:00,
2013-07-25 06:27:00,50.2,48.8,30.08,East,96,0.0,2.3,95,0.00,,,0.00,WeatherDisplay:10.37,2013-07-25 10:27:00,
2013-07-25 06:32:00,50.6,49.2,30.08,SE,136,0.0,2.3,95,0.00,,,0.00,WeatherDisplay:10.37,2013-07-25 10:32:00,
2013-07-25 06:37:00,51.2,49.8,30.08,ESE,114,0.0,2.3,95,0.00,,,0.00,WeatherDisplay:10.37,2013-07-25 10:37:00,
2013-07-25 06:42:00,52.2,50.8,30.08,ESE,116,0.0,2.3,95,0.00,,,0.00,WeatherDisplay:10.37,2013-07-25 10:42:00,
2013-07-25 06:47:00,53.3,51.6,30.08,ESE,115,0.0,2.3,94,0.00,,,0.00,WeatherDisplay:10.37,2013-07-25 10:47:00,
2013-07-25 06:52:00,53.7,51.7,30.08,SSE,150,0.0,2.3,93,0.00,,,0.00,WeatherDisplay:10.37,2013-07-25 10:52:00,
2013-07-25 06:57:00,54.2,51.9,30.08,SSE,150,0.0,2.3,92,0.00,,,0.00,WeatherDisplay:10.37,2013-07-25 10:57:00,
2013-07-25 07:02:00,54.9,52.3,30.08,SSE,149,0.0,2.3,91,0.00,CLR,,0.00,WeatherDisplay:10.37,2013-07-25 11:02:00,
2013-07-25 07:07:00,55.6,52.4,30.08,South,176,0.0,2.3,89,0.00,CLR,,0.00,WeatherDisplay:10.37,2013-07-25 11:07:00,
2013-07-25 07:12:00,56.3,52.5,30.08,South,181,0.0,2.3,87,0.00,CLR,,0.00,WeatherDisplay:10.37,2013-07-25 11:12:00,
2013-07-25 07:17:00,56.5,52.0,30.09,South,190,0.0,2.3,85,0.00,CLR,,0.00,WeatherDisplay:10.37,2013-07-25 11:17:00,
2013-07-25 07:22:00,56.9,52.4,30.09,SW,215,0.0,2.3,85,0.00,CLR,,0.00,WeatherDisplay:10.37,2013-07-25 11:22:00,
2013-07-25 07:27:00,57.1,52.3,30.09,WSW,250,0.0,2.3,84,0.00,CLR,,0.00,WeatherDisplay:10.37,2013-07-25 11:27:00,
2013-07-25 07:32:00,57.2,52.4,30.09,West,272,1.2,3.5,84,0.00,CLR,,0.00,WeatherDisplay:10.37,2013-07-25 11:32:00,
2013-07-25 07:37:00,57.2,52.4,30.09,SSW,210,0.6,3.5,84,0.00,CLR,,0.00,WeatherDisplay:10.37,2013-07-25 11:37:00,
2013-07-25 07:42:00,57.4,52.3,30.09,West,278,1.5,3.5,83,0.00,CLR,,0.00,WeatherDisplay:10.37,2013-07-25 11:42:00,
2013-07-25 07:47:00,57.6,52.5,30.09,WSW,247,1.0,3.5,83,0.00,CLR,,0.00,WeatherDisplay:10.37,2013-07-25 11:47:00,
2013-07-25 07:52:00,58.0,52.5,30.09,West,269,0.6,3.5,82,0.00,CLR,,0.00,WeatherDisplay:10.37,2013-07-25 11:52:00,
2013-07-25 07:57:00,58.6,53.5,30.09,West,278,0.2,3.5,83,0.00,CLR,,0.00,WeatherDisplay:10.37,2013-07-25 11:57:00,
2013-07-25 08:02:00,59.0,53.2,30.09,WSW,256,1.0,3.5,81,0.00,CLR,,0.00,WeatherDisplay:10.37,2013-07-25 12:02:00,
2013-07-25 08:07:00,59.2,53.4,30.09,SW,229,0.7,3.5,81,0.00,CLR,,0.00,WeatherDisplay:10.37,2013-07-25 12:07:00,
2013-07-25 08:12:00,59.5,53.0,30.09,SW,225,1.2,3.5,79,0.00,CLR,,0.00,WeatherDisplay:10.37,2013-07-25 12:12:00,
2013-07-25 08:17:00,59.9,53.7,30.09,West,263,0.1,3.5,80,0.00,CLR,,0.00,WeatherDisplay:10.37,2013-07-25 12:17:00,
2013-07-25 08:22:00,61.1,55.2,30.09,West,263,0.0,3.5,81,0.00,CLR,,0.00,WeatherDisplay:10.37,2013-07-25 12:22:00,
2013-07-25 08:27:00,62.5,55.2,30.09,SE,136,0.0,3.5,77,0.00,CLR,,0.00,WeatherDisplay:10.37,2013-07-25 12:27:00,
2013-07-25 08:32:00,63.8,54.6,30.09,SSE,158,0.3,3.5,72,0.00,CLR,,0.00,WeatherDisplay:10.37,2013-07-25 12:32:00,
2013-07-25 08:37:00,64.2,55.7,30.09,WSW,255,0.3,3.5,74,0.00,CLR,,0.00,WeatherDisplay:10.37,2013-07-25 12:37:00,
2013-07-25 08:42:00,64.2,55.4,30.09,SSE,166,0.0,3.5,73,0.00,CLR,,0.00,WeatherDisplay:10.37,2013-07-25 12:42:00,
2013-07-25 08:47:00,65.4,56.1,30.10,SW,214,0.1,3.5,72,0.00,CLR,,0.00,WeatherDisplay:10.37,2013-07-25 12:47:00,
2013-07-25 08:52:00,65.2,55.6,30.10,WSW,248,0.0,3.5,71,0.00,CLR,,0.00,WeatherDisplay:10.37,2013-07-25 12:52:00,
2013-07-25 08:57:00,65.2,54.4,30.10,WSW,253,1.2,3.5,68,0.00,CLR,,0.00,WeatherDisplay:10.37,2013-07-25 12:57:00,
2013-07-25 09:02:00,65.3,55.7,30.10,East,88,0.6,3.5,71,0.00,,,0.00,WeatherDisplay:10.37,2013-07-25 13:02:00,
2013-07-25 09:07:00,66.1,55.6,30.10,WSW,256,0.0,3.5,69,0.00,,,0.00,WeatherDisplay:10.37,2013-07-25 13:07:00,
2013-07-25 09:12:00,66.0,53.9,30.10,West,264,2.0,3.5,65,0.00,,,0.00,WeatherDisplay:10.37,2013-07-25 13:12:00,
2013-07-25 09:17:00,65.8,54.1,30.10,West,263,0.1,3.5,66,0.00,,,0.00,WeatherDisplay:10.37,2013-07-25 13:17:00,
2013-07-25 09:22:00,66.1,54.8,30.11,SW,229,0.1,3.5,67,0.00,,,0.00,WeatherDisplay:10.37,2013-07-25 13:22:00,
2013-07-25 09:27:00,67.4,54.4,30.11,SE,143,0.2,3.5,63,0.00,,,0.00,WeatherDisplay:10.37,2013-07-25 13:27:00,
2013-07-25 09:32:00,68.5,55.8,30.11,ENE,57,1.0,3.5,64,0.00,,,0.00,WeatherDisplay:10.37,2013-07-25 13:32:00,
2013-07-25 09:37:00,68.1,54.6,30.11,North,4,0.7,3.5,62,0.00,,,0.00,WeatherDisplay:10.37,2013-07-25 13:37:00,
2013-07-25 09:42:00,67.7,55.5,30.11,West,274,0.1,3.5,65,0.00,,,0.00,WeatherDisplay:10.37,2013-07-25 13:42:00,
2013-07-25 09:47:00,67.2,53.7,30.11,West,264,0.9,3.5,62,0.00,,,0.00,WeatherDisplay:10.37,2013-07-25 13:47:00,
2013-07-25 09:52:00,67.2,54.6,30.12,SW,235,0.5,3.5,64,0.00,,,0.00,WeatherDisplay:10.37,2013-07-25 13:52:00,
2013-07-25 09:57:00,67.6,55.4,30.12,SW,235,0.3,3.5,65,0.00,,,0.00,WeatherDisplay:10.37,2013-07-25 13:57:00,
2013-07-25 10:02:00,68.3,55.2,30.12,SSE,152,0.4,3.5,63,0.00,,,0.00,WeatherDisplay:10.37,2013-07-25 14:02:00,
2013-07-25 10:07:00,68.6,55.9,30.12,East,83,0.0,3.5,64,0.00,,,0.00,WeatherDisplay:10.37,2013-07-25 14:07:00,
2013-07-25 10:12:00,68.7,56.0,30.12,ENE,62,0.9,3.5,64,0.00,,,0.00,WeatherDisplay:10.37,2013-07-25 14:12:00,
2013-07-25 10:17:00,68.4,55.3,30.12,East,84,1.2,6.0,63,0.00,,,0.00,WeatherDisplay:10.37,2013-07-25 14:17:00,
2013-07-25 10:22:00,68.5,55.4,30.12,West,276,0.5,6.0,63,0.00,,,0.00,WeatherDisplay:10.37,2013-07-25 14:22:00,
2013-07-25 10:27:00,68.9,56.2,30.12,WSW,256,0.8,6.0,64,0.00,,,0.00,WeatherDisplay:10.37,2013-07-25 14:27:00,
2013-07-25 10:32:00,68.3,55.2,30.12,WSW,241,2.2,6.0,63,0.00,,,0.00,WeatherDisplay:10.37,2013-07-25 14:32:00,
2013-07-25 10:37:00,68.7,55.6,30.12,ENE,77,0.8,6.0,63,0.00,,,0.00,WeatherDisplay:10.37,2013-07-25 14:37:00,
2013-07-25 10:42:00,69.2,55.6,30.12,SSE,149,2.0,6.0,62,0.00,,,0.00,WeatherDisplay:10.37,2013-07-25 14:42:00,
2013-07-25 10:47:00,69.6,57.7,30.12,West,273,1.6,6.0,66,0.00,,,0.00,WeatherDisplay:10.37,2013-07-25 14:47:00,
2013-07-25 10:52:00,69.7,55.2,30.12,West,280,0.5,6.0,60,0.00,,,0.00,WeatherDisplay:10.37,2013-07-25 14:52:00,
2013-07-25 10:57:00,69.4,55.4,30.12,East,79,1.5,6.0,61,0.00,,,0.00,WeatherDisplay:10.37,2013-07-25 14:57:00,
2013-07-25 11:02:00,68.7,55.6,30.12,ENE,58,0.4,6.0,63,0.00,,,0.00,WeatherDisplay:10.37,2013-07-25 15:02:00,
2013-07-25 11:07:00,68.2,54.7,30.11,South,181,1.3,6.0,62,0.00,,,0.00,WeatherDisplay:10.37,2013-07-25 15:07:00,
2013-07-25 11:12:00,67.9,56.1,30.12,SE,133,1.0,6.0,66,0.00,,,0.00,WeatherDisplay:10.37,2013-07-25 15:12:00,
2013-07-25 11:17:00,67.9,55.3,30.12,NNE,27,0.7,6.0,64,0.00,,,0.00,WeatherDisplay:10.37,2013-07-25 15:17:00,
2013-07-25 11:22:00,67.7,55.1,30.12,East,101,0.5,6.0,64,0.00,,,0.00,WeatherDisplay:10.37,2013-07-25 15:22:00,
2013-07-25 11:27:00,67.7,55.9,30.12,NNE,26,0.0,6.0,66,0.00,,,0.00,WeatherDisplay:10.37,2013-07-25 15:27:00,
2013-07-25 11:32:00,67.9,56.1,30.11,SE,133,1.3,6.0,66,0.00,,,0.00,WeatherDisplay:10.37,2013-07-25 15:32:00,
2013-07-25 11:37:00,68.6,55.5,30.12,SE,125,0.4,6.0,63,0.00,,,0.00,WeatherDisplay:10.37,2013-07-25 15:37:00,
2013-07-25 11:42:00,69.3,56.2,30.11,North,9,0.0,6.0,63,0.00,,,0.00,WeatherDisplay:10.37,2013-07-25 15:42:00,
2013-07-25 11:47:00,69.3,56.2,30.12,NE,47,1.6,6.0,63,0.00,,,0.00,WeatherDisplay:10.37,2013-07-25 15:47:00,
2013-07-25 11:52:00,69.3,55.3,30.12,ESE,103,3.6,6.0,61,0.00,,,0.00,WeatherDisplay:10.37,2013-07-25 15:52:00,
2013-07-25 11:57:00,69.0,55.0,30.12,East,89,3.3,6.0,61,0.00,,,0.00,WeatherDisplay:10.37,2013-07-25 15:57:00,
2013-07-25 12:02:00,69.3,55.7,30.12,ENE,64,1.4,6.0,62,0.00,,,0.00,WeatherDisplay:10.37,2013-07-25 16:02:00,
2013-07-25 12:07:00,68.9,54.4,30.12,SE,134,1.1,7.0,60,0.00,,,0.00,WeatherDisplay:10.37,2013-07-25 16:07:00,
2013-07-25 12:12:00,68.6,55.1,30.12,North,357,0.5,7.0,62,0.00,,,0.00,WeatherDisplay:10.37,2013-07-25 16:12:00,
2013-07-25 12:17:00,68.5,55.8,30.12,SSW,201,1.7,7.0,64,0.00,,,0.00,WeatherDisplay:10.37,2013-07-25 16:17:00,
2013-07-25 12:22:00,69.4,54.4,30.12,ESE,108,1.9,8.0,59,0.00,,,0.00,WeatherDisplay:10.37,2013-07-25 16:22:00,
2013-07-25 12:27:00,69.2,54.7,30.12,ESE,103,1.2,8.0,60,0.00,,,0.00,WeatherDisplay:10.37,2013-07-25 16:27:00,
2013-07-25 12:32:00,69.6,54.2,30.11,ESE,110,2.0,8.0,58,0.00,,,0.00,WeatherDisplay:10.37,2013-07-25 16:32:00,
2013-07-25 12:37:00,70.4,56.3,30.11,East,96,1.6,8.0,61,0.00,,,0.00,WeatherDisplay:10.37,2013-07-25 16:37:00,
2013-07-25 12:42:00,70.7,55.7,30.11,ESE,104,3.5,8.0,59,0.00,,,0.00,WeatherDisplay:10.37,2013-07-25 16:42:00,
2013-07-25 12:47:00,70.4,57.6,30.11,North,357,0.7,8.0,64,0.00,,,0.00,WeatherDisplay:10.37,2013-07-25 16:47:00,
2013-07-25 12:52:00,70.6,56.5,30.11,WSW,248,1.0,8.0,61,0.00,,,0.00,WeatherDisplay:10.37,2013-07-25 16:52:00,
2013-07-25 12:57:00,70.1,55.1,30.11,ESE,102,2.6,8.0,59,0.00,,,0.00,WeatherDisplay:10.37,2013-07-25 16:57:00,
2013-07-25 13:02:00,70.5,55.9,30.11,East,91,1.7,8.0,60,0.00,,,0.00,WeatherDisplay:10.37,2013-07-25 17:02:00,
2013-07-25 13:07:00,70.4,55.8,30.11,NW,322,1.9,8.0,60,0.00,,,0.00,WeatherDisplay:10.37,2013-07-25 17:07:00,
2013-07-25 13:12:00,70.6,55.1,30.11,East,86,2.1,8.0,58,0.00,,,0.00,WeatherDisplay:10.37,2013-07-25 17:12:00,
2013-07-25 13:17:00,70.9,56.3,30.11,West,259,0.4,8.0,60,0.00,,,0.00,WeatherDisplay:10.37,2013-07-25 17:17:00,
2013-07-25 13:22:00,70.9,54.9,30.11,SE,139,1.6,8.0,57,0.00,,,0.00,WeatherDisplay:10.37,2013-07-25 17:22:00,
2013-07-25 13:27:00,71.2,54.7,30.11,East,100,1.5,8.0,56,0.00,,,0.00,WeatherDisplay:10.37,2013-07-25 17:27:00,
2013-07-25 13:32:00,71.7,57.5,30.11,SSW,200,1.9,8.0,61,0.00,,,0.00,WeatherDisplay:10.37,2013-07-25 17:32:00,
2013-07-25 13:37:00,71.5,56.4,30.11,East,84,1.9,8.0,59,0.00,,,0.00,WeatherDisplay:10.37,2013-07-25 17:37:00,
2013-07-25 13:42:00,71.5,54.5,30.11,ENE,78,1.2,8.0,55,0.00,,,0.00,WeatherDisplay:10.37,2013-07-25 17:42:00,
2013-07-25 13:47:00,71.2,54.2,30.11,NE,50,1.5,8.1,55,0.00,,,0.00,WeatherDisplay:10.37,2013-07-25 17:47:00,
2013-07-25 13:52:00,71.0,55.5,30.11,SE,128,2.1,8.1,58,0.00,,,0.00,WeatherDisplay:10.37,2013-07-25 17:52:00,
2013-07-25 13:57:00,71.1,54.1,30.11,South,172,1.9,8.1,55,0.00,,,0.00,WeatherDisplay:10.37,2013-07-25 17:57:00,
2013-07-25 14:02:00,71.7,56.1,30.11,ESE,110,0.7,8.1,58,0.00,,,0.00,WeatherDisplay:10.37,2013-07-25 18:02:00,
2013-07-25 14:07:00,71.5,53.5,30.10,East,88,3.1,8.1,53,0.00,,,0.00,WeatherDisplay:10.37,2013-07-25 18:07:00,
2013-07-25 14:12:00,71.2,54.7,30.10,East,82,3.2,8.1,56,0.00,,,0.00,WeatherDisplay:10.37,2013-07-25 18:12:00,
2013-07-25 14:17:00,70.9,54.4,30.11,East,96,1.5,8.1,56,0.00,,,0.00,WeatherDisplay:10.37,2013-07-25 18:17:00,
2013-07-25 14:22:00,70.8,53.8,30.11,East,89,1.4,8.1,55,0.00,,,0.00,WeatherDisplay:10.37,2013-07-25 18:22:00,
2013-07-25 14:27:00,70.8,52.8,30.11,WNW,290,0.7,8.1,53,0.00,,,0.00,WeatherDisplay:10.37,2013-07-25 18:27:00,
2013-07-25 14:32:00,71.0,53.5,30.11,East,80,2.0,8.1,54,0.00,,,0.00,WeatherDisplay:10.37,2013-07-25 18:32:00,
2013-07-25 14:37:00,70.8,54.3,30.10,ESE,102,1.5,8.1,56,0.00,,,0.00,WeatherDisplay:10.37,2013-07-25 18:37:00,
2013-07-25 14:42:00,70.6,56.0,30.10,East,95,1.6,8.1,60,0.00,,,0.00,WeatherDisplay:10.37,2013-07-25 18:42:00,
2013-07-25 14:47:00,70.9,53.9,30.10,ENE,64,3.2,8.1,55,0.00,,,0.00,WeatherDisplay:10.37,2013-07-25 18:47:00,
2013-07-25 14:52:00,71.2,54.2,30.10,ENE,78,0.9,8.1,55,0.00,,,0.00,WeatherDisplay:10.37,2013-07-25 18:52:00,
2013-07-25 14:57:00,71.5,52.4,30.10,ENE,65,2.6,8.1,51,0.00,,,0.00,WeatherDisplay:10.37,2013-07-25 18:57:00,
2013-07-25 15:02:00,71.2,54.2,30.10,ESE,116,0.1,8.1,55,0.00,,,0.00,WeatherDisplay:10.37,2013-07-25 19:02:00,
2013-07-25 15:07:00,72.2,57.1,30.10,ESE,118,1.4,8.1,59,0.00,,,0.00,WeatherDisplay:10.37,2013-07-25 19:07:00,
2013-07-25 15:12:00,71.8,54.3,30.10,SE,128,2.7,8.1,54,0.00,,,0.00,WeatherDisplay:10.37,2013-07-25 19:12:00,
2013-07-25 15:17:00,72.0,51.8,30.10,ENE,67,0.5,8.1,49,0.00,,,0.00,WeatherDisplay:10.37,2013-07-25 19:17:00,
2013-07-25 15:22:00,72.4,51.0,30.10,ENE,68,1.4,8.1,47,0.00,,,0.00,WeatherDisplay:10.37,2013-07-25 19:22:00,
2013-07-25 15:27:00,72.3,52.6,30.10,ESE,110,0.7,8.1,50,0.00,,,0.00,WeatherDisplay:10.37,2013-07-25 19:27:00,
2013-07-25 15:32:00,72.4,52.2,30.10,WNW,297,0.3,8.1,49,0.00,,,0.00,WeatherDisplay:10.37,2013-07-25 19:32:00,
2013-07-25 15:37:00,72.6,52.3,30.10,ENE,70,2.6,8.1,49,0.00,,,0.00,WeatherDisplay:10.37,2013-07-25 19:37:00,
2013-07-25 15:42:00,72.6,53.4,30.10,East,86,0.3,8.1,51,0.00,,,0.00,WeatherDisplay:10.37,2013-07-25 19:42:00,
2013-07-25 15:47:00,72.6,52.9,30.10,SSE,158,1.7,8.1,50,0.00,,,0.00,WeatherDisplay:10.37,2013-07-25 19:47:00,
2013-07-25 15:52:00,72.2,52.5,30.10,ESE,118,3.6,8.1,50,0.00,,,0.00,WeatherDisplay:10.37,2013-07-25 19:52:00,
2013-07-25 15:57:00,72.1,53.5,30.10,ENE,57,2.1,8.1,52,0.00,,,0.00,WeatherDisplay:10.37,2013-07-25 19:57:00,
2013-07-25 16:02:00,72.1,50.2,30.10,East,94,2.4,8.1,46,0.00,,,0.00,WeatherDisplay:10.37,2013-07-25 20:02:00,
2013-07-25 16:07:00,71.8,49.9,30.10,NE,56,0.6,8.1,46,0.00,,,0.00,WeatherDisplay:10.37,2013-07-25 20:07:00,
2013-07-25 16:12:00,72.2,50.8,30.09,ESE,122,0.3,8.1,47,0.00,,,0.00,WeatherDisplay:10.37,2013-07-25 20:12:00,
2013-07-25 16:17:00,72.2,50.3,30.09,ENE,78,1.5,8.1,46,0.00,,,0.00,WeatherDisplay:10.37,2013-07-25 20:17:00,
2013-07-25 16:23:00,72.0,50.1,30.09,East,94,2.6,8.1,46,0.00,,,0.00,WeatherDisplay:10.37,2013-07-25 20:23:00,
2013-07-25 16:28:00,71.9,51.1,30.09,ENE,58,2.7,8.1,48,0.00,,,0.00,WeatherDisplay:10.37,2013-07-25 20:28:00,
2013-07-25 16:33:00,72.1,53.5,30.09,NW,311,1.5,8.1,52,0.00,,,0.00,WeatherDisplay:10.37,2013-07-25 20:33:00,
2013-07-25 16:38:00,72.6,52.3,30.10,WNW,287,1.4,8.1,49,0.00,,,0.00,WeatherDisplay:10.37,2013-07-25 20:38:00,
2013-07-25 16:43:00,72.8,49.0,30.09,SE,139,3.4,8.1,43,0.00,,,0.00,WeatherDisplay:10.37,2013-07-25 20:43:00,
2013-07-25 16:48:00,72.7,50.1,30.09,ESE,110,0.3,8.1,45,0.00,,,0.00,WeatherDisplay:10.37,2013-07-25 20:48:00,
2013-07-25 16:53:00,73.2,51.8,30.09,SE,139,0.4,8.1,47,0.00,,,0.00,WeatherDisplay:10.37,2013-07-25 20:53:00,
2013-07-25 16:58:00,73.2,48.7,30.09,NW,308,1.0,8.1,42,0.00,,,0.00,WeatherDisplay:10.37,2013-07-25 20:58:00,
2013-07-25 17:03:00,73.2,52.9,30.09,SSW,210,0.6,8.1,49,0.00,,,0.00,WeatherDisplay:10.37,2013-07-25 21:03:00,
2013-07-25 17:08:00,72.7,51.3,30.09,WSW,241,1.0,8.1,47,0.00,,,0.00,WeatherDisplay:10.37,2013-07-25 21:08:00,
2013-07-25 17:13:00,72.6,51.2,30.09,SE,131,2.5,8.1,47,0.00,,,0.00,WeatherDisplay:10.37,2013-07-25 21:13:00,
2013-07-25 17:18:00,72.4,51.6,30.09,ESE,116,0.6,8.1,48,0.00,,,0.00,WeatherDisplay:10.37,2013-07-25 21:18:00,
2013-07-25 17:23:00,72.4,52.7,30.09,NW,324,0.8,8.1,50,0.00,,,0.00,WeatherDisplay:10.37,2013-07-25 21:23:00,
2013-07-25 17:28:00,72.5,53.9,30.10,NNE,30,0.8,8.1,52,0.00,,,0.00,WeatherDisplay:10.37,2013-07-25 21:28:00,
2013-07-25 17:33:00,72.7,51.3,30.09,NE,55,1.2,8.1,47,0.00,,,0.00,WeatherDisplay:10.37,2013-07-25 21:33:00,
2013-07-25 17:38:00,72.1,52.4,30.09,East,98,1.1,8.1,50,0.00,,,0.00,WeatherDisplay:10.37,2013-07-25 21:38:00,
2013-07-25 17:43:00,72.2,52.5,30.09,WSW,250,0.9,8.1,50,0.00,,,0.00,WeatherDisplay:10.37,2013-07-25 21:43:00,
2013-07-25 17:48:00,72.3,52.6,30.09,ESE,104,0.3,8.1,50,0.00,,,0.00,WeatherDisplay:10.37,2013-07-25 21:48:00,
2013-07-25 17:53:00,72.5,52.8,30.09,West,263,1.0,8.1,50,0.00,,,0.00,WeatherDisplay:10.37,2013-07-25 21:53:00,
2013-07-25 17:58:00,72.6,52.9,30.09,SW,225,1.2,8.1,50,0.00,,,0.00,WeatherDisplay:10.37,2013-07-25 21:58:00,
2013-07-25 18:03:00,72.4,52.2,30.09,ESE,116,0.4,8.1,49,0.00,,,0.00,WeatherDisplay:10.37,2013-07-25 22:03:00,
2013-07-25 18:08:00,72.7,54.1,30.09,SW,234,0.2,8.1,52,0.00,,,0.00,WeatherDisplay:10.37,2013-07-25 22:08:00,
2013-07-25 18:13:00,72.2,52.5,30.09,ENE,68,1.2,8.1,50,0.00,,,0.00,WeatherDisplay:10.37,2013-07-25 22:13:00,
2013-07-25 18:18:00,71.6,53.0,30.09,NE,41,1.3,8.1,52,0.00,,,0.00,WeatherDisplay:10.37,2013-07-25 22:18:00,
2013-07-25 18:23:00,71.7,54.2,30.09,WNW,294,0.4,8.1,54,0.00,,,0.00,WeatherDisplay:10.37,2013-07-25 22:23:00,
2013-07-25 18:28:00,71.6,52.5,30.09,ENE,71,1.1,8.1,51,0.00,,,0.00,WeatherDisplay:10.37,2013-07-25 22:28:00,
2013-07-25 18:33:00,71.1,52.6,30.09,SE,124,2.1,8.1,52,0.00,,,0.00,WeatherDisplay:10.37,2013-07-25 22:33:00,
2013-07-25 18:38:00,70.9,52.4,30.09,SE,125,0.9,8.1,52,0.00,,,0.00,WeatherDisplay:10.37,2013-07-25 22:38:00,
2013-07-25 18:43:00,70.7,53.7,30.09,East,85,1.3,8.1,55,0.00,,,0.00,WeatherDisplay:10.37,2013-07-25 22:43:00,
2013-07-25 18:48:00,70.8,52.3,30.09,SSW,200,0.0,8.1,52,0.00,,,0.00,WeatherDisplay:10.37,2013-07-25 22:48:00,
2013-07-25 18:53:00,70.9,52.9,30.09,East,94,0.7,8.1,53,0.00,,,0.00,WeatherDisplay:10.37,2013-07-25 22:53:00,
2013-07-25 18:58:00,70.5,54.5,30.09,NW,311,0.2,8.1,57,0.00,,,0.00,WeatherDisplay:10.37,2013-07-25 22:58:00,
2013-07-25 19:03:00,69.9,53.5,30.09,East,81,0.7,8.1,56,0.00,,,0.00,WeatherDisplay:10.37,2013-07-25 23:03:00,
2013-07-25 19:08:00,69.5,53.1,30.09,West,281,0.5,8.1,56,0.00,,,0.00,WeatherDisplay:10.37,2013-07-25 23:08:00,
2013-07-25 19:13:00,69.1,52.7,30.09,NW,322,1.1,8.1,56,0.00,,,0.00,WeatherDisplay:10.37,2013-07-25 23:13:00,
2013-07-25 19:18:00,68.8,52.9,30.09,ENE,75,1.9,8.1,57,0.00,,,0.00,WeatherDisplay:10.37,2013-07-25 23:18:00,
2013-07-25 19:23:00,68.6,53.2,30.09,SE,142,0.6,8.1,58,0.00,,,0.00,WeatherDisplay:10.37,2013-07-25 23:23:00,
2013-07-25 19:28:00,68.5,53.1,30.09,SE,132,1.7,8.1,58,0.00,,,0.00,WeatherDisplay:10.37,2013-07-25 23:28:00,
2013-07-25 19:33:00,68.3,53.4,30.09,ENE,65,0.0,8.1,59,0.00,,,0.00,WeatherDisplay:10.37,2013-07-25 23:33:00,
2013-07-25 19:38:00,68.0,54.5,30.09,ENE,73,0.1,8.1,62,0.00,,,0.00,WeatherDisplay:10.37,2013-07-25 23:38:00,
2013-07-25 19:43:00,67.5,53.6,30.09,NW,304,0.0,8.1,61,0.00,,,0.00,WeatherDisplay:10.37,2013-07-25 23:43:00,
2013-07-25 19:48:00,67.2,54.2,30.09,NW,306,0.0,8.1,63,0.00,,,0.00,WeatherDisplay:10.37,2013-07-25 23:48:00,
2013-07-25 19:53:00,66.8,54.2,30.09,SE,132,0.5,8.1,64,0.00,,,0.00,WeatherDisplay:10.37,2013-07-25 23:53:00,
2013-07-25 19:58:00,66.5,54.8,30.09,East,98,0.4,8.1,66,0.00,,,0.00,WeatherDisplay:10.37,2013-07-25 23:58:00,
2013-07-25 20:03:00,66.5,53.9,30.09,East,82,0.4,8.1,64,0.00,,,0.00,WeatherDisplay:10.37,2013-07-26 00:03:00,
2013-07-25 20:08:00,66.2,54.9,30.09,East,82,0.0,8.1,67,0.00,,,0.00,WeatherDisplay:10.37,2013-07-26 00:08:00,
2013-07-25 20:13:00,65.5,54.7,30.10,East,82,0.0,8.1,68,0.00,,,0.00,WeatherDisplay:10.37,2013-07-26 00:13:00,
2013-07-25 20:18:00,64.9,54.5,30.10,East,82,0.0,8.1,69,0.00,,,0.00,WeatherDisplay:10.37,2013-07-26 00:18:00,
2013-07-25 20:23:00,64.3,55.1,30.09,East,82,0.0,8.1,72,0.00,,,0.00,WeatherDisplay:10.37,2013-07-26 00:23:00,
2013-07-25 20:28:00,63.7,54.9,30.10,East,82,0.0,8.1,73,0.00,,,0.00,WeatherDisplay:10.37,2013-07-26 00:28:00,
2013-07-25 20:33:00,63.2,54.4,30.10,East,82,0.0,8.1,73,0.00,,,0.00,WeatherDisplay:10.37,2013-07-26 00:33:00,
2013-07-25 20:38:00,62.6,54.2,30.09,East,82,0.0,8.1,74,0.00,,,0.00,WeatherDisplay:10.37,2013-07-26 00:38:00,
2013-07-25 20:43:00,62.2,54.9,30.09,East,82,0.0,8.1,77,0.00,,,0.00,WeatherDisplay:10.37,2013-07-26 00:43:00,
2013-07-25 20:48:00,61.8,54.9,30.09,East,82,0.0,8.1,78,0.00,,,0.00,WeatherDisplay:10.37,2013-07-26 00:48:00,
2013-07-25 20:53:00,61.3,55.1,30.09,East,82,0.0,8.1,80,0.00,,,0.00,WeatherDisplay:10.37,2013-07-26 00:53:00,
2013-07-25 20:58:00,61.1,55.2,30.09,East,82,0.0,8.1,81,0.00,,,0.00,WeatherDisplay:10.37,2013-07-26 00:58:00,
2013-07-25 21:03:00,60.7,54.8,30.09,East,82,0.0,8.1,81,0.00,,,0.00,WeatherDisplay:10.37,2013-07-26 01:03:00,
2013-07-25 21:08:00,60.4,54.9,30.09,East,82,0.0,8.1,82,0.00,,,0.00,WeatherDisplay:10.37,2013-07-26 01:08:00,
2013-07-25 21:13:00,60.0,54.5,30.09,East,82,0.0,8.1,82,0.00,,,0.00,WeatherDisplay:10.37,2013-07-26 01:13:00,
2013-07-25 21:18:00,59.7,54.9,30.09,East,82,0.0,8.1,84,0.00,,,0.00,WeatherDisplay:10.37,2013-07-26 01:18:00,
2013-07-25 21:23:00,59.4,54.9,30.09,East,82,0.0,8.1,85,0.00,,,0.00,WeatherDisplay:10.37,2013-07-26 01:23:00,
2013-07-25 21:28:00,59.1,54.6,30.09,East,82,0.0,8.1,85,0.00,,,0.00,WeatherDisplay:10.37,2013-07-26 01:28:00,
2013-07-25 21:33:00,58.9,54.4,30.09,East,82,0.0,8.1,85,0.00,,,0.00,WeatherDisplay:10.37,2013-07-26 01:33:00,
2013-07-25 21:38:00,58.6,54.1,30.09,East,82,0.0,8.1,85,0.00,,,0.00,WeatherDisplay:10.37,2013-07-26 01:38:00,
2013-07-25 21:43:00,58.6,54.1,30.09,East,82,0.0,8.1,85,0.00,,,0.00,WeatherDisplay:10.37,2013-07-26 01:43:00,
2013-07-25 21:48:00,58.3,53.8,30.09,East,82,0.0,8.1,85,0.00,,,0.00,WeatherDisplay:10.37,2013-07-26 01:48:00,
2013-07-25 21:53:00,58.2,54.0,30.09,East,82,0.0,8.1,86,0.00,,,0.00,WeatherDisplay:10.37,2013-07-26 01:53:00,
2013-07-25 21:58:00,58.2,54.3,30.09,East,82,0.0,8.1,87,0.00,,,0.00,WeatherDisplay:10.37,2013-07-26 01:58:00,
2013-07-25 22:03:00,58.1,54.2,30.10,East,82,0.0,8.1,87,0.00,,,0.00,WeatherDisplay:10.37,2013-07-26 02:03:00,
2013-07-25 22:08:00,57.8,53.6,30.10,East,82,0.0,8.1,86,0.00,,,0.00,WeatherDisplay:10.37,2013-07-26 02:08:00,
2013-07-25 22:13:00,57.6,54.1,30.10,East,82,0.0,8.1,88,0.00,,,0.00,WeatherDisplay:10.37,2013-07-26 02:13:00,
2013-07-25 22:18:00,57.5,54.3,30.10,East,82,0.0,8.1,89,0.00,,,0.00,WeatherDisplay:10.37,2013-07-26 02:18:00,
2013-07-25 22:23:00,57.4,54.5,30.10,East,82,0.0,8.1,90,0.00,,,0.00,WeatherDisplay:10.37,2013-07-26 02:23:00,
2013-07-25 22:28:00,57.4,54.5,30.10,East,82,0.0,8.1,90,0.00,,,0.00,WeatherDisplay:10.37,2013-07-26 02:28:00,
2013-07-25 22:33:00,57.4,54.5,30.10,East,82,0.0,8.1,90,0.00,,,0.00,WeatherDisplay:10.37,2013-07-26 02:33:00,
2013-07-25 22:38:00,57.3,54.4,30.10,East,82,0.0,8.1,90,0.00,,,0.00,WeatherDisplay:10.37,2013-07-26 02:38:00,
2013-07-25 22:43:00,57.2,54.3,30.10,East,82,0.0,8.1,90,0.00,,,0.00,WeatherDisplay:10.37,2013-07-26 02:43:00,
2013-07-25 22:48:00,57.1,54.2,30.10,East,82,0.0,8.1,90,0.00,,,0.00,WeatherDisplay:10.37,2013-07-26 02:48:00,
2013-07-25 22:53:00,57.0,54.1,30.10,East,82,0.0,8.1,90,0.00,,,0.00,WeatherDisplay:10.37,2013-07-26 02:53:00,
2013-07-25 22:58:00,57.0,54.1,30.10,East,82,0.0,8.1,90,0.00,,,0.00,WeatherDisplay:10.37,2013-07-26 02:58:00,
2013-07-25 23:03:00,56.7,53.8,30.10,East,82,0.0,8.1,90,0.00,,,0.00,WeatherDisplay:10.37,2013-07-26 03:03:00,
2013-07-25 23:08:00,56.6,53.7,30.10,East,82,0.0,8.1,90,0.00,,,0.00,WeatherDisplay:10.37,2013-07-26 03:08:00,
2013-07-25 23:13:00,56.3,53.4,30.11,East,82,0.0,8.1,90,0.00,,,0.00,WeatherDisplay:10.37,2013-07-26 03:13:00,
2013-07-25 23:18:00,56.1,53.5,30.11,East,82,0.0,8.1,91,0.00,,,0.00,WeatherDisplay:10.37,2013-07-26 03:18:00,
2013-07-25 23:23:00,56.2,53.9,30.11,East,82,0.0,8.1,92,0.00,,,0.00,WeatherDisplay:10.37,2013-07-26 03:23:00,
2013-07-25 23:28:00,56.2,53.9,30.11,East,82,0.0,8.1,92,0.00,,,0.00,WeatherDisplay:10.37,2013-07-26 03:28:00,
2013-07-25 23:33:00,56.1,53.8,30.11,East,82,0.0,8.1,92,0.00,,,0.00,WeatherDisplay:10.37,2013-07-26 03:33:00,
2013-07-25 23:38:00,55.9,53.6,30.11,East,82,0.0,8.1,92,0.00,,,0.00,WeatherDisplay:10.37,2013-07-26 03:38:00,
2013-07-25 23:43:00,55.7,53.4,30.11,East,82,0.0,8.1,92,0.00,,,0.00,WeatherDisplay:10.37,2013-07-26 03:43:00,
2013-07-25 23:48:00,55.5,53.2,30.11,East,82,0.0,8.1,92,0.00,,,0.00,WeatherDisplay:10.37,2013-07-26 03:48:00,
2013-07-25 23:53:00,55.6,53.6,30.11,East,82,0.0,0.0,93,0.00,,,0.00,WeatherDisplay:10.37,2013-07-26 03:53:00,
2013-07-25 23:58:00,55.6,53.6,30.11,East,82,0.0,0.0,93,0.00,,,0.00,WeatherDisplay:10.37,2013-07-26 03:58:00,